Time;durP1;ratioP1;P1;durP2;ratioP2;P2;SDS_P1;SDS_P2;PMS_P1;PMS_P2;Temp;Humidity;BMP_temperature;BMP_pressure;BME280_temperature;BME280_humidity;BME280_pressure;Samples;Min_cycle;Max_cycle;Signal;HPM_P1;HPM_P2
2022/07/31 00:03:09;;;;;;;;;;;;;;;;;;21261153;27;19931;-55
2022/07/31 00:13:11;;;;;;;;;;;;;;;;;;21260447;27;19923;-67
2022/07/31 00:23:13;;;;;;;;;;;;;;;;;;21277598;27;19946;-63
2022/07/31 00:33:15;;;;;;;;;;;;;;;;;;21257515;27;19972;-63
2022/07/31 00:43:19;;;;;;;;;;;;;;;;;;21256503;27;20010;-65
2022/07/31 00:53:20;;;;;;;;;;;;;;;;;;21256739;27;19923;-62
2022/07/31 01:03:22;;;;;;;;;;;;;;;;;;21257736;27;19987;-56
2022/07/31 01:13:24;;;;;;;;;;;;;;;;;;21255842;27;19924;-67
2022/07/31 01:23:26;;;;;;;;;;;;;;;;;;21254078;27;20010;-65
2022/07/31 01:33:29;;;;;;;;;;;;;;;;;;21252989;27;19924;-64
2022/07/31 01:43:39;;;;;;;;;;;;;;;;;;21251806;27;19923;-64
2022/07/31 01:53:43;;;;;;;;;;;;;;;;;;21251551;27;19927;-66
2022/07/31 02:03:48;;;;;;;;;;;;;;;;;;21252285;27;19976;-56
2022/07/31 02:13:58;;;;;;;;;;;;;;;;;;21259002;27;19923;-66
2022/07/31 02:24:06;;;;;;;;;;;;;;;;;;21250039;27;19923;-65
2022/07/31 02:34:10;;;;;;;;;;;;;;;;;;21266416;27;20391;-65
2022/07/31 02:44:16;;;;;;;;;;;;;;;;;;21251557;28;19923;-66
2022/07/31 02:54:20;;;;;;;;;;;;;;;;;;21247661;28;19923;-67
2022/07/31 03:04:24;;;;;;;;;;;;;;;;;;21248703;28;19923;-65
2022/07/31 03:14:28;;;;;;;;;;;;;;;;;;21246691;28;19927;-63
2022/07/31 03:24:31;;;;;;;;;;;;;;;;;;21247113;28;19923;-64
2022/07/31 03:34:34;;;;;;;;;;;;;;;;;;21246044;28;19924;-59
2022/07/31 03:44:37;;;;;;;;;;;;;;;;;;21248469;27;19998;-65
2022/07/31 03:54:41;;;;;;;;;;;;;;;;;;21261306;27;19992;-54
2022/07/31 04:04:44;;;;;;;;;;;;;;;;;;21260474;27;20061;-60
2022/07/31 04:14:47;;;;;;;;;;;;;;;;;;21258452;27;19934;-60
2022/07/31 04:24:50;;;;;;;;;;;;;;;;;;21260305;27;19923;-65
2022/07/31 04:34:53;;;;;;;;;;;;;;;;;;21257066;27;19929;-57
2022/07/31 04:44:55;;;;;;;;;;;;;;;;;;21256628;27;20417;-56
2022/07/31 04:54:57;;;;;;;;;;;;;;;;;;21255874;27;19929;-65
2022/07/31 05:05:00;;;;;;;;;;;;;;;;;;21257037;27;19930;-55
2022/07/31 05:15:02;;;;;;;;;;;;;;;;;;21254371;27;19923;-61
2022/07/31 05:25:04;;;;;;;;;;;;;;;;;;21254016;27;20413;-56
2022/07/31 05:35:06;;;;;;;;;;;;;;;;;;21256599;27;20298;-55
2022/07/31 05:45:08;;;;;;;;;;;;;;;;;;21269799;27;19924;-54
2022/07/31 05:55:11;;;;;;;;;;;;;;;;;;21288282;27;19990;-56
2022/07/31 06:05:14;;;;;;;;;;;;;;;;;;21284432;27;19962;-63
2022/07/31 06:15:17;;;;;;;;;;;;;;;;;;21254384;27;19966;-64
2022/07/31 06:25:19;;;;;;;;;;;;;;;;;;21250200;27;19931;-57
2022/07/31 06:35:21;;;;;;;;;;;;;;;;;;21249317;27;19974;-58
2022/07/31 06:45:23;;;;;;;;;;;;;;;;;;21248864;28;19933;-58
2022/07/31 06:55:25;;;;;;;;;;;;;;;;;;21248587;28;19923;-58
2022/07/31 07:05:27;;;;;;;;;;;;;;;;;;21247443;28;19935;-58
2022/07/31 07:15:29;;;;;;;;;;;;;;;;;;21167472;28;19967;-63
2022/07/31 07:25:32;;;;;;;;;;;;;;;;;;21175094;28;20018;-63
2022/07/31 07:35:35;;;;;;;;;;;;;;;;;;21178147;28;19993;-64
2022/07/31 07:45:38;;;;;;;;;;;;;;;;;;21175999;28;19923;-64
2022/07/31 07:55:40;;;;;;;;;;;;;;;;;;21178217;28;19923;-58
2022/07/31 08:05:42;;;;;;;;;;;;;;;;;;21175255;28;20276;-56
2022/07/31 08:15:45;;;;;;;;;;;;;;;;;;21254963;27;19990;-64
2022/07/31 08:25:47;;;;;;;;;;;;;;;;;;21260540;27;20351;-65
2022/07/31 08:35:49;;;;;;;;;;;;;;;;;;21257773;27;19923;-57
2022/07/31 08:45:51;;;;;;;;;;;;;;;;;;21256728;27;19924;-55
2022/07/31 08:55:53;;;;;;;;;;;;;;;;;;21257609;27;19927;-54
2022/07/31 09:05:55;;;;;;;;;;;;;;;;;;21256180;27;20417;-55
2022/07/31 09:15:57;;;;;;;;;;;;;;;;;;21256349;27;20371;-58
2022/07/31 09:26:00;;;;;;;;;;;;;;;;;;21256712;27;19923;-61
2022/07/31 09:36:03;;;;;;;;;;;;;;;;;;21253572;27;19930;-55
2022/07/31 09:46:07;;;;;;;;;;;;;;;;;;21251271;27;19959;-56
2022/07/31 09:56:11;;;;;;;;;;;;;;;;;;21250030;27;19923;-66
2022/07/31 10:06:13;;;;;;;;;;;;;;;;;;21236616;27;20303;-55
2022/07/31 10:16:15;;;;;;;;;;;;;;;;;;21164190;28;19938;-64
2022/07/31 10:26:17;;;;;;;;;;;;;;;;;;21163111;28;19924;-65
2022/07/31 10:36:21;;;;;;;;;;;;;;;;;;21161460;28;21307;-61
2022/07/31 10:46:23;;;;;;;;;;;;;;;;;;21163956;28;19924;-58
2022/07/31 10:56:24;;;;;;;;;;;;;;;;;;21170003;28;19930;-57
2022/07/31 11:06:26;;;;;;;;;;;;;;;;;;21178790;28;19924;-64
2022/07/31 11:16:28;;;;;;;;;;;;;;;;;;21177403;28;20010;-64
2022/07/31 11:26:31;;;;;;;;;;;;;;;;;;21178647;28;19924;-55
2022/07/31 11:36:33;;;;;;;;;;;;;;;;;;21177995;28;20364;-54
2022/07/31 11:46:36;;;;;;;;;;;;;;;;;;21175531;28;19924;-62
2022/07/31 11:56:39;;;;;;;;;;;;;;;;;;21174377;28;19927;-65
2022/07/31 12:06:42;;;;;;;;;;;;;;;;;;21172960;28;20383;-57
2022/07/31 12:16:44;;;;;;;;;;;;;;;;;;21175595;28;19953;-55
2022/07/31 12:26:46;;;;;;;;;;;;;;;;;;21172110;28;19973;-57
2022/07/31 12:36:48;;;;;;;;;;;;;;;;;;21171807;28;19931;-55
2022/07/31 12:46:50;;;;;;;;;;;;;;;;;;21153618;28;19931;-62
2022/07/31 12:56:52;;;;;;;;;;;;;;;;;;21170325;28;19924;-53
2022/07/31 13:06:54;;;;;;;;;;;;;;;;;;21168967;28;20006;-66
2022/07/31 13:16:56;;;;;;;;;;;;;;;;;;21169068;28;19924;-53
2022/07/31 13:27:02;;;;;;;;;;;;;;;;;;21168177;28;20332;-55
2022/07/31 13:37:04;;;;;;;;;;;;;;;;;;21167646;28;19923;-59
2022/07/31 13:47:06;;;;;;;;;;;;;;;;;;21170936;28;19924;-63
2022/07/31 13:57:08;;;;;;;;;;;;;;;;;;21168344;28;19928;-66
2022/07/31 14:07:11;;;;;;;;;;;;;;;;;;21166471;28;19928;-66
2022/07/31 14:17:13;;;;;;;;;;;;;;;;;;21164479;28;19975;-66
2022/07/31 14:27:15;;;;;;;;;;;;;;;;;;21163260;28;19924;-64
2022/07/31 14:37:18;;;;;;;;;;;;;;;;;;21164812;28;19924;-64
2022/07/31 14:47:21;;;;;;;;;;;;;;;;;;21144943;28;19959;-65
2022/07/31 14:57:23;;;;;;;;;;;;;;;;;;21165023;28;19950;-65
2022/07/31 15:07:25;;;;;;;;;;;;;;;;;;21162161;28;20038;-65
2022/07/31 15:17:28;;;;;;;;;;;;;;;;;;21164512;28;20323;-62
2022/07/31 15:27:31;;;;;;;;;;;;;;;;;;21162296;28;19924;-62
2022/07/31 15:37:34;;;;;;;;;;;;;;;;;;21161415;28;20383;-62
2022/07/31 15:47:36;;;;;;;;;;;;;;;;;;21175223;28;19946;-65
2022/07/31 15:57:39;;;;;;;;;;;;;;;;;;21176126;28;19930;-67
2022/07/31 16:07:58;;;;;;;;;;;;;;;;;;21176485;28;19920;-62
2022/07/31 16:18:00;;;;;;;;;;;;;;;;;;21176947;28;19924;-68
2022/07/31 16:28:02;;;;;;;;;;;;;;;;;;21172735;28;19936;-63
2022/07/31 16:38:04;;;;;;;;;;;;;;;;;;21153822;28;19968;-54
2022/07/31 16:48:06;;;;;;;;;;;;;;;;;;21171168;28;19976;-58
2022/07/31 16:58:10;;;;;;;;;;;;;;;;;;21170468;28;20387;-65
2022/07/31 17:08:12;;;;;;;;;;;;;;;;;;21169552;28;20014;-65
2022/07/31 17:18:13;;;;;;;;;;;;;;;;;;21169878;28;19930;-63
2022/07/31 17:28:15;;;;;;;;;;;;;;;;;;21170814;28;19923;-54
2022/07/31 17:38:17;;;;;;;;;;;;;;;;;;21189860;28;19935;-63
2022/07/31 17:48:19;;;;;;;;;;;;;;;;;;21170886;28;19924;-54
2022/07/31 17:58:21;;;;;;;;;;;;;;;;;;21168712;28;19923;-54
2022/07/31 18:08:23;;;;;;;;;;;;;;;;;;21162989;28;19930;-61
2022/07/31 18:18:25;;;;;;;;;;;;;;;;;;21163640;28;19923;-61
2022/07/31 18:28:31;;;;;;;;;;;;;;;;;;21163274;28;19924;-58
2022/07/31 18:38:37;;;;;;;;;;;;;;;;;;21163636;28;19950;-63
2022/07/31 18:48:38;;;;;;;;;;;;;;;;;;21163825;28;19924;-61
2022/07/31 18:58:44;;;;;;;;;;;;;;;;;;21162678;28;20061;-62
2022/07/31 19:08:48;;;;;;;;;;;;;;;;;;21163043;28;19970;-60
2022/07/31 19:18:49;;;;;;;;;;;;;;;;;;21152485;28;19924;-57
2022/07/31 19:28:51;;;;;;;;;;;;;;;;;;21178307;28;19924;-62
2022/07/31 19:39:00;;;;;;;;;;;;;;;;;;21177595;28;20010;-59
2022/07/31 19:49:02;;;;;;;;;;;;;;;;;;21175863;28;19924;-66
2022/07/31 19:59:04;;;;;;;;;;;;;;;;;;21175490;28;19927;-64
2022/07/31 20:09:13;;;;;;;;;;;;;;;;;;21175351;28;19923;-65
2022/07/31 20:19:15;;;;;;;;;;;;;;;;;;21174032;28;20010;-59
2022/07/31 20:29:21;;;;;;;;;;;;;;;;;;21171628;28;19923;-56
2022/07/31 20:39:23;;;;;;;;;;;;;;;;;;21172602;28;19931;-58
2022/07/31 20:49:26;;;;;;;;;;;;;;;;;;21172600;28;19924;-54
2022/07/31 20:59:31;;;;;;;;;;;;;;;;;;21171747;28;20375;-63
2022/07/31 21:09:33;;;;;;;;;;;;;;;;;;21171558;28;20010;-54
2022/07/31 21:19:41;;;;;;;;;;;;;;;;;;21171755;28;20333;-57
2022/07/31 21:29:43;;;;;;;;;;;;;;;;;;21168579;28;19928;-60
2022/07/31 21:39:47;;;;;;;;;;;;;;;;;;21168443;28;19931;-58
2022/07/31 21:49:51;;;;;;;;;;;;;;;;;;21168289;28;19963;-57
2022/07/31 21:59:53;;;;;;;;;;;;;;;;;;21166138;28;20371;-57
2022/07/31 22:09:56;;;;;;;;;;;;;;;;;;21157136;28;19928;-54
2022/07/31 22:19:58;;;;;;;;;;;;;;;;;;21165343;28;19969;-55
2022/07/31 22:30:00;;;;;;;;;;;;;;;;;;21163704;28;20055;-60
2022/07/31 22:40:02;;;;;;;;;;;;;;;;;;21163684;28;19927;-64
2022/07/31 22:50:07;;;;;;;;;;;;;;;;;;21166186;28;19924;-54
2022/07/31 23:00:09;;;;;;;;;;;;;;;;;;21181800;28;19931;-66
2022/07/31 23:10:11;;;;;;;;;;;;;;;;;;21182979;28;19924;-60
2022/07/31 23:20:14;;;;;;;;;;;;;;;;;;21179590;28;19981;-54
2022/07/31 23:30:15;;;;;;;;;;;;;;;;;;21177687;28;19924;-55
2022/07/31 23:40:17;;;;;;;;;;;;;;;;;;21177141;28;19930;-62
2022/07/31 23:50:19;;;;;;;;;;;;;;;;;;21176500;28;19938;-54
